Time;durP1;ratioP1;P1;durP2;ratioP2;P2;SDS_P1;SDS_P2;PMS_P1;PMS_P2;Temp;Humidity;BMP_temperature;BMP_pressure;BME280_temperature;BME280_humidity;BME280_pressure;Samples;Min_cycle;Max_cycle;Signal;HPM_P1;HPM_P2
2022/03/14 00:01:02;;;;;;;12.65;7.25;;;;;;;1.62;77.18;100902.66;5974804;29;20042;-89
2022/03/14 00:04:04;;;;;;;11.57;7.68;;;;;;;1.64;75.92;100900.84;6004996;29;20098;-90
2022/03/14 00:07:06;;;;;;;13.20;7.53;;;;;;;1.64;76.86;100911.06;6002394;29;20558;-89
2022/03/14 00:10:09;;;;;;;10.27;6.88;;;;;;;1.64;73.34;100911.91;5991183;29;20145;-89
2022/03/14 00:13:12;;;;;;;10.32;6.78;;;;;;;1.60;76.43;100906.97;5997552;29;20057;-89
2022/03/14 00:16:24;;;;;;;13.85;8.35;;;;;;;1.55;77.26;100911.41;5997450;29;20686;-90
2022/03/14 00:19:25;;;;;;;10.65;7.00;;;;;;;1.53;78.51;100910.63;6000169;29;20074;-89
2022/03/14 00:22:28;;;;;;;11.73;7.57;;;;;;;1.54;80.08;100919.94;5992887;29;20042;-90
2022/03/14 00:25:30;;;;;;;13.38;7.15;;;;;;;1.53;77.42;100924.22;5992208;29;20050;-89
2022/03/14 00:28:31;;;;;;;15.52;6.68;;;;;;;1.53;78.66;100923.38;6016634;29;20061;-89
2022/03/14 00:31:34;;;;;;;11.85;7.53;;;;;;;1.49;79.59;100925.19;5987165;29;20038;-90
2022/03/14 00:34:36;;;;;;;12.02;7.25;;;;;;;1.46;78.65;100927.84;5992652;29;20054;-89
2022/03/14 00:37:38;;;;;;;11.15;7.65;;;;;;;1.41;81.55;100924.63;5969275;29;20046;-89
2022/03/14 00:40:40;;;;;;;10.32;7.22;;;;;;;1.38;82.93;100930.66;5990653;29;20535;-90
2022/03/14 00:43:42;;;;;;;11.85;7.20;;;;;;;1.35;82.19;100925.69;5981278;29;20054;-90
2022/03/14 00:46:44;;;;;;;12.57;7.65;;;;;;;1.33;80.55;100921.53;5991061;29;20045;-90
2022/03/14 00:49:46;;;;;;;12.27;7.40;;;;;;;1.30;79.87;100922.47;5979134;29;20085;-89
2022/03/14 00:52:48;;;;;;;10.15;7.82;;;;;;;1.27;80.70;100925.94;5975480;29;20397;-90
2022/03/14 00:55:50;;;;;;;11.30;6.75;;;;;;;1.29;83.01;100933.53;5962599;29;20054;-89
2022/03/14 00:58:52;;;;;;;11.90;7.47;;;;;;;1.26;79.96;100937.00;5989814;29;20046;-89
2022/03/14 01:01:54;;;;;;;18.58;8.52;;;;;;;1.23;82.15;100929.47;5990527;29;20420;-89
2022/03/14 01:04:56;;;;;;;15.40;7.55;;;;;;;1.22;80.48;100932.09;5995872;29;20470;-90
2022/03/14 01:07:58;;;;;;;11.80;7.60;;;;;;;1.25;81.96;100927.72;5999636;29;20038;-89
2022/03/14 01:11:00;;;;;;;12.48;8.55;;;;;;;1.25;80.90;100935.34;6007859;29;20046;-89
2022/03/14 01:14:02;;;;;;;13.27;7.82;;;;;;;1.26;81.48;100931.91;5984843;29;20279;-89
2022/03/14 01:17:11;;;;;;;11.77;7.85;;;;;;;1.27;79.85;100933.59;5984557;29;20542;-89
2022/03/14 01:20:13;;;;;;;12.65;8.15;;;;;;;1.33;79.40;100944.47;5996001;29;20140;-89
2022/03/14 01:23:15;;;;;;;12.73;8.05;;;;;;;1.34;80.67;100948.66;6014000;29;20062;-89
2022/03/14 01:26:17;;;;;;;13.25;8.52;;;;;;;1.33;80.88;100950.41;5985473;29;20052;-90
2022/03/14 01:29:21;;;;;;;15.25;8.52;;;;;;;1.33;80.36;100940.19;5998941;29;20057;-89
2022/03/14 01:32:25;;;;;;;9.50;6.85;;;;;;;1.30;82.13;100947.97;5998442;29;20060;-90
2022/03/14 01:35:27;;;;;;;11.32;7.43;;;;;;;1.32;79.88;100948.75;5997313;29;20049;-89
2022/03/14 01:38:29;;;;;;;13.05;7.90;;;;;;;1.28;80.46;100953.09;6012383;29;20062;-90
2022/03/14 01:41:31;;;;;;;12.30;7.65;;;;;;;1.31;80.97;100952.16;5973809;29;20131;-90
2022/03/14 01:44:34;;;;;;;11.57;8.10;;;;;;;1.30;81.02;100942.84;5969308;29;20053;-89
2022/03/14 01:47:38;;;;;;;10.15;7.65;;;;;;;1.27;81.09;100954.00;6013704;29;20064;-89
2022/03/14 01:50:40;;;;;;;12.57;7.60;;;;;;;1.31;83.00;100957.25;5988855;29;20129;-89
2022/03/14 01:53:42;;;;;;;13.95;7.75;;;;;;;1.28;81.79;100958.19;5978937;29;20054;-89
2022/03/14 01:56:46;;;;;;;11.40;7.32;;;;;;;1.24;80.58;100963.44;5987559;29;20576;-89
2022/03/14 01:59:49;;;;;;;12.38;7.45;;;;;;;1.26;80.16;100970.16;5993413;29;20050;-89
2022/03/14 02:02:56;;;;;;;12.18;8.23;;;;;;;1.26;81.42;100967.59;5997985;29;20053;-89
2022/03/14 02:05:58;;;;;;;12.82;8.02;;;;;;;1.22;82.96;100970.34;5975199;29;20039;-89
2022/03/14 02:09:00;;;;;;;12.05;8.13;;;;;;;1.18;82.32;100972.13;5988290;29;20042;-90
2022/03/14 02:12:02;;;;;;;11.18;7.10;;;;;;;1.19;84.54;100973.81;5989476;29;20045;-90
2022/03/14 02:15:04;;;;;;;15.13;8.40;;;;;;;1.18;84.78;100972.13;5973812;29;20069;-90
2022/03/14 02:18:12;;;;;;;13.57;8.55;;;;;;;1.23;84.73;100972.00;5996499;29;20038;-89
2022/03/14 02:21:14;;;;;;;12.35;8.05;;;;;;;1.25;80.25;100976.16;6008493;29;20635;-89
2022/03/14 02:24:16;;;;;;;12.70;7.32;;;;;;;1.24;78.44;100974.50;5984066;29;20046;-90
2022/03/14 02:27:19;;;;;;;12.40;7.53;;;;;;;1.23;80.86;100974.53;5992590;29;20133;-89
2022/03/14 02:30:22;;;;;;;12.68;7.97;;;;;;;1.22;86.39;100978.81;5982814;29;20050;-90
2022/03/14 02:33:24;;;;;;;14.95;8.23;;;;;;;1.22;82.58;100988.19;5972730;29;20050;-89
2022/03/14 02:36:26;;;;;;;12.35;7.47;;;;;;;1.22;86.45;100991.56;6005747;29;20050;-89
2022/03/14 02:39:28;;;;;;;11.68;7.90;;;;;;;1.20;82.65;100990.78;5997271;29;20048;-89
2022/03/14 02:42:31;;;;;;;14.25;8.52;;;;;;;1.22;84.57;100985.63;5982183;29;20068;-89
2022/03/14 02:45:33;;;;;;;13.40;8.20;;;;;;;1.23;82.06;100989.84;5998045;29;20128;-89
2022/03/14 02:48:36;;;;;;;15.15;8.55;;;;;;;1.21;81.23;100989.88;5998807;29;20050;-89
2022/03/14 02:51:39;;;;;;;13.52;8.27;;;;;;;1.19;82.10;101001.00;5976395;29;20054;-89
2022/03/14 02:54:41;;;;;;;12.10;8.52;;;;;;;1.15;80.95;100999.47;5981506;29;20527;-89
2022/03/14 02:57:43;;;;;;;12.20;7.60;;;;;;;1.14;83.52;100996.06;5996518;29;20049;-90
2022/03/14 03:00:45;;;;;;;12.35;8.10;;;;;;;1.16;85.26;101006.22;5996243;29;20061;-89
2022/03/14 03:03:47;;;;;;;13.25;8.27;;;;;;;1.15;79.60;101002.00;5982751;29;20053;-89
2022/03/14 03:06:49;;;;;;;13.60;7.85;;;;;;;1.17;80.05;101007.88;5975659;29;20073;-89
2022/03/14 03:09:51;;;;;;;11.43;7.80;;;;;;;1.19;81.33;101011.22;5993141;29;20468;-89
2022/03/14 03:12:54;;;;;;;12.57;8.05;;;;;;;1.20;80.46;101006.06;6014089;29;20054;-89
2022/03/14 03:15:56;;;;;;;12.80;7.88;;;;;;;1.28;78.25;101016.03;5998068;29;20496;-89
2022/03/14 03:18:58;;;;;;;11.38;8.27;;;;;;;1.25;76.87;101011.03;5989020;29;20761;-89
2022/03/14 03:22:01;;;;;;;10.98;7.82;;;;;;;1.26;76.91;101018.59;5991890;29;20049;-90
2022/03/14 03:25:04;;;;;;;13.85;8.25;;;;;;;1.23;79.13;101020.44;5974545;29;20057;-89
2022/03/14 03:28:06;;;;;;;15.45;8.45;;;;;;;1.21;80.78;101019.66;5988389;29;20097;-90
2022/03/14 03:31:10;;;;;;;15.40;8.45;;;;;;;1.21;82.76;101024.75;5982113;29;20539;-89
2022/03/14 03:34:11;;;;;;;12.85;8.00;;;;;;;1.18;80.90;101023.13;5999343;29;20626;-90
2022/03/14 03:37:13;;;;;;;12.23;8.00;;;;;;;1.15;78.17;101028.34;5996743;29;20109;-90
2022/03/14 03:40:15;;;;;;;12.32;8.35;;;;;;;1.14;80.15;101024.09;5991718;29;20046;-89
2022/03/14 03:43:17;;;;;;;14.27;8.52;;;;;;;1.15;76.97;101025.78;5988924;29;20043;-89
2022/03/14 03:46:19;;;;;;;14.45;8.18;;;;;;;1.17;77.72;101036.78;5978400;29;20125;-89
2022/03/14 03:49:21;;;;;;;15.02;8.32;;;;;;;1.21;78.36;101040.03;6005135;29;20050;-89
2022/03/14 03:52:23;;;;;;;13.45;8.45;;;;;;;1.21;78.76;101037.50;5991415;29;20609;-89
2022/03/14 03:55:25;;;;;;;14.05;8.57;;;;;;;1.22;80.42;101045.09;6000953;29;20049;-90
2022/03/14 03:58:28;;;;;;;12.55;8.60;;;;;;;1.23;78.31;101038.28;5983377;29;20271;-89
2022/03/14 04:01:31;;;;;;;14.20;7.97;;;;;;;1.31;74.27;101038.88;5996435;29;20566;-89
2022/03/14 04:04:35;;;;;;;13.00;8.10;;;;;;;1.37;76.87;101036.13;5981855;29;20064;-89
2022/03/14 04:07:40;;;;;;;13.65;8.25;;;;;;;1.39;76.62;101034.38;5995207;29;20038;-89
2022/03/14 04:10:43;;;;;;;13.95;8.18;;;;;;;1.41;77.90;101047.06;5996626;29;20050;-89
2022/03/14 04:13:45;;;;;;;15.65;7.90;;;;;;;1.59;75.26;101045.59;5997583;29;20189;-89
2022/03/14 04:16:48;;;;;;;13.20;8.90;;;;;;;1.58;73.91;101044.78;5990720;29;20048;-89
2022/03/14 04:19:51;;;;;;;14.68;8.20;;;;;;;1.56;74.03;101041.44;5988715;29;20126;-89
2022/03/14 04:22:52;;;;;;;16.55;8.48;;;;;;;1.59;72.91;101045.59;5979695;29;20050;-89
2022/03/14 04:25:54;;;;;;;12.63;7.85;;;;;;;1.75;70.92;101051.06;6002522;29;20549;-89
2022/03/14 04:28:56;;;;;;;14.18;8.43;;;;;;;1.59;73.05;101056.69;5990870;29;20105;-89
2022/03/14 04:31:58;;;;;;;14.20;8.18;;;;;;;1.50;76.77;101062.06;6000891;29;20050;-89
2022/03/14 04:35:00;;;;;;;17.05;9.38;;;;;;;1.42;77.39;101061.50;5991071;29;20054;-89
2022/03/14 04:38:04;;;;;;;15.15;8.40;;;;;;;1.39;81.48;101059.88;5984687;29;20057;-89
2022/03/14 04:41:06;;;;;;;15.20;8.93;;;;;;;1.38;86.46;101059.91;5996693;29;20058;-89
2022/03/14 04:44:08;;;;;;;15.40;9.25;;;;;;;1.35;89.50;101068.50;5991296;29;20074;-89
2022/03/14 04:47:10;;;;;;;13.65;8.98;;;;;;;1.32;89.88;101068.59;5987656;29;20046;-89
2022/03/14 04:50:13;;;;;;;15.60;8.65;;;;;;;1.27;91.11;101075.56;5983781;29;20046;-89
2022/03/14 04:53:15;;;;;;;14.88;8.63;;;;;;;1.27;93.33;101073.84;5993910;29;20113;-89
2022/03/14 04:56:17;;;;;;;13.27;8.50;;;;;;;1.26;95.40;101077.25;5974488;29;20038;-89
2022/03/14 04:59:19;;;;;;;14.55;8.63;;;;;;;1.29;95.67;101073.78;5979749;29;20050;-90
2022/03/14 05:02:28;;;;;;;13.18;9.48;;;;;;;1.31;94.29;101078.84;6015478;29;20162;-89
2022/03/14 05:05:30;;;;;;;15.18;9.32;;;;;;;1.34;95.64;101079.56;5986748;29;20110;-89
2022/03/14 05:08:32;;;;;;;16.27;10.00;;;;;;;1.39;97.04;101085.38;6003227;29;20046;-89
2022/03/14 05:11:34;;;;;;;16.38;9.48;;;;;;;1.44;98.46;101088.63;5974490;29;20049;-89
2022/03/14 05:14:35;;;;;;;14.25;9.73;;;;;;;1.47;96.81;101088.50;6002496;29;20102;-89
2022/03/14 05:17:37;;;;;;;22.35;8.85;;;;;;;1.52;97.00;101088.38;5987570;29;20317;-89
2022/03/14 05:20:40;;;;;;;17.27;9.68;;;;;;;1.58;98.81;101100.09;5991477;29;20049;-89
2022/03/14 05:23:42;;;;;;;17.05;9.48;;;;;;;1.57;97.74;101103.53;5975552;29;20046;-89
2022/03/14 05:26:45;;;;;;;16.63;9.48;;;;;;;1.59;96.95;101112.81;5977688;29;20050;-90
2022/03/14 05:29:47;;;;;;;14.65;9.55;;;;;;;1.62;94.76;101110.16;5996884;29;20210;-89
2022/03/14 05:32:49;;;;;;;14.00;8.75;;;;;;;1.65;95.02;101107.50;5997890;29;20147;-89
2022/03/14 05:35:52;;;;;;;16.00;9.30;;;;;;;1.73;95.21;101109.78;5989157;29;20042;-89
2022/03/14 05:38:53;;;;;;;14.27;9.10;;;;;;;1.82;94.25;101116.31;5998140;29;20050;-89
2022/03/14 05:41:57;;;;;;;15.32;8.68;;;;;;;1.87;93.25;101117.00;5980987;29;20053;-89
2022/03/14 05:44:59;;;;;;;15.65;9.27;;;;;;;1.92;94.24;101123.63;6000502;29;20605;-89
2022/03/14 05:48:02;;;;;;;13.10;9.35;;;;;;;1.97;94.24;101128.56;6000563;29;20049;-89
2022/03/14 05:51:05;;;;;;;17.50;9.05;;;;;;;2.01;95.20;101122.47;5999252;29;20594;-89
2022/03/14 05:54:08;;;;;;;16.73;9.32;;;;;;;2.17;87.05;101122.78;6000803;29;20053;-89
2022/03/14 05:57:10;;;;;;;16.52;10.27;;;;;;;2.19;87.09;101130.38;5973557;29;20571;-90
2022/03/14 06:00:20;;;;;;;14.98;9.40;;;;;;;2.26;88.18;101137.81;5989590;29;20145;-90
2022/03/14 06:03:22;;;;;;;14.80;9.20;;;;;;;2.32;83.63;101141.84;6000043;29;20160;-90
2022/03/14 06:06:24;;;;;;;16.42;9.43;;;;;;;2.41;84.74;101140.69;5991393;29;20389;-90
2022/03/14 06:09:25;;;;;;;15.30;9.63;;;;;;;2.47;82.47;101143.88;5999582;29;20060;-90
2022/03/14 06:12:32;;;;;;;16.52;9.90;;;;;;;2.50;85.71;101143.75;5980829;29;20070;-90
2022/03/14 06:15:34;;;;;;;16.70;10.07;;;;;;;2.54;85.63;101157.28;6001331;29;20050;-89
2022/03/14 06:18:37;;;;;;;19.52;11.70;;;;;;;2.61;85.37;101155.31;6004566;29;20045;-90
2022/03/14 06:21:39;;;;;;;18.15;10.43;;;;;;;2.64;84.38;101161.16;6004211;29;20081;-89
2022/03/14 06:24:41;;;;;;;16.60;8.77;;;;;;;2.69;82.01;101169.50;6002502;29;20076;-90
2022/03/14 06:27:44;;;;;;;15.68;9.40;;;;;;;2.66;78.07;101172.19;6004097;29;20523;-90
2022/03/14 06:30:46;;;;;;;15.02;9.00;;;;;;;2.71;77.24;101177.97;5984596;29;20523;-89
2022/03/14 06:33:49;;;;;;;16.45;9.60;;;;;;;2.79;76.57;101186.19;5994226;29;20657;-90
2022/03/14 06:36:51;;;;;;;14.38;9.13;;;;;;;2.88;79.39;101186.72;6004783;29;20092;-89
2022/03/14 06:39:53;;;;;;;16.63;9.20;;;;;;;2.93;78.92;101189.94;5995821;29;20515;-89
2022/03/14 06:42:55;;;;;;;14.55;9.95;;;;;;;2.98;79.94;101196.59;6000628;29;20037;-90
2022/03/14 06:45:57;;;;;;;15.57;9.27;;;;;;;3.09;80.91;101192.78;5985808;29;20500;-90
2022/03/14 06:48:59;;;;;;;16.95;9.50;;;;;;;3.19;80.33;101202.63;5984351;29;20054;-90
2022/03/14 06:52:01;;;;;;;16.77;9.57;;;;;;;3.26;80.56;101205.78;5992975;29;20464;-90
2022/03/14 06:55:05;;;;;;;17.33;9.45;;;;;;;3.37;82.88;101215.59;5983187;29;20057;-90
2022/03/14 06:58:07;;;;;;;17.75;10.05;;;;;;;3.45;81.85;101222.13;5999725;29;20061;-90
2022/03/14 07:01:12;;;;;;;15.35;9.00;;;;;;;3.55;77.50;101222.59;5982915;29;20050;-90
2022/03/14 07:04:14;;;;;;;14.93;9.50;;;;;;;3.71;78.59;101222.00;5997993;29;20047;-90
2022/03/14 07:07:16;;;;;;;12.80;8.70;;;;;;;3.94;79.96;101234.72;6009385;29;20045;-90
2022/03/14 07:10:19;;;;;;;13.82;9.18;;;;;;;4.22;81.09;101238.72;5988021;29;20069;-90
2022/03/14 07:13:21;;;;;;;15.27;9.52;;;;;;;4.49;83.14;101242.69;6004020;29;20561;-90
2022/03/14 07:16:26;;;;;;;14.57;9.90;;;;;;;4.85;85.65;101249.75;6004409;29;20068;-90
2022/03/14 07:19:29;;;;;;;17.60;10.15;;;;;;;5.30;91.13;101246.03;6010922;29;20053;-91
2022/03/14 07:22:47;;;;;;;17.65;10.73;;;;;;;5.70;92.90;101248.50;6027293;29;20049;-90
2022/03/14 07:25:50;;;;;;;17.85;11.13;;;;;;;6.09;94.11;101261.22;6101729;24;20050;-91
2022/03/14 07:28:59;;;;;;;18.10;11.05;;;;;;;6.51;97.21;101267.72;6343871;23;20097;31
2022/03/14 07:32:07;;;;;;;17.53;11.47;;;;;;;6.73;96.67;101271.78;6094478;23;20113;-90
2022/03/14 07:35:24;;;;;;;18.75;12.00;;;;;;;6.86;97.28;101281.38;6052804;24;20073;-91
2022/03/14 07:38:40;;;;;;;16.73;10.75;;;;;;;6.97;96.18;101282.56;6046129;29;20110;-91
2022/03/14 07:41:52;;;;;;;18.20;11.48;;;;;;;7.00;96.00;101272.94;6055089;29;20062;-91
2022/03/14 07:45:04;;;;;;;19.73;12.32;;;;;;;7.05;96.93;101272.69;6249724;23;20045;-90
2022/03/14 07:49:02;;;;;;;19.37;11.57;;;;;;;7.14;96.82;101279.13;4227403;23;20333;31
2022/03/14 07:52:30;;;;;;;17.65;11.07;;;;;;;7.34;96.91;101271.16;5998243;29;20305;-91
2022/03/14 07:56:11;;;;;;;19.33;11.38;;;;;;;7.61;97.73;101276.56;6014733;29;20110;-91
2022/03/14 08:07:34;;;;;;;15.40;9.63;;;;;;;7.92;100.00;101282.59;7222377;23;20036;31
2022/03/14 08:22:10;;;;;;;13.80;8.40;;;;;;;8.10;100.00;101294.50;6751237;23;20028;-93
2022/03/14 08:29:07;;;;;;;10.90;7.25;;;;;;;8.36;100.00;101293.00;6900247;23;20856;-92
2022/03/14 08:32:36;;;;;;;;;;;;;;;8.47;100.00;101296.72;6400300;24;20088;-92
2022/03/14 08:52:04;;;;;;;11.32;6.47;;;;;;;9.44;100.00;101302.97;7138497;23;20028;31
2022/03/14 09:06:05;;;;;;;10.13;6.70;;;;;;;9.36;100.00;101328.44;6956184;23;20024;-94
2022/03/14 09:09:25;;;;;;;11.13;6.60;;;;;;;9.55;100.00;101333.31;6082454;23;20061;-94
2022/03/14 09:12:38;;;;;;;10.80;6.93;;;;;;;9.63;100.00;101341.41;6402746;23;20041;31
2022/03/14 09:23:12;;;;;;;;;;;;;;;9.90;100.00;101344.03;7188244;23;20042;-94
2022/03/14 09:45:15;;;;;;;8.90;6.35;;;;;;;8.96;100.00;101366.16;7399993;23;21096;31
2022/03/14 09:48:18;;;;;;;9.18;6.28;;;;;;;8.75;100.00;101369.06;6044059;29;20058;-92
2022/03/14 09:51:25;;;;;;;9.57;5.93;;;;;;;8.67;100.00;101373.84;6041949;29;20061;-92
2022/03/14 09:54:28;;;;;;;9.75;6.45;;;;;;;8.71;100.00;101377.09;6161776;23;20048;-92
2022/03/14 09:57:32;;;;;;;11.90;6.80;;;;;;;8.70;100.00;101378.00;6120596;24;20054;-92
2022/03/14 10:00:36;;;;;;;9.73;6.75;;;;;;;8.71;100.00;101383.06;6008174;29;20054;-91
2022/03/14 10:03:44;;;;;;;8.00;6.27;;;;;;;8.73;100.00;101386.41;6873260;23;20020;31
2022/03/14 10:06:47;;;;;;;9.85;6.72;;;;;;;8.81;100.00;101391.13;5992245;29;20094;-92
2022/03/14 10:09:51;;;;;;;10.32;7.15;;;;;;;8.78;100.00;101399.03;5999871;29;20065;-93
2022/03/14 10:12:59;;;;;;;8.85;6.65;;;;;;;8.73;100.00;101407.03;5996397;29;20038;-92
2022/03/14 10:19:38;;;;;;;10.43;6.65;;;;;;;8.47;100.00;101423.16;6038738;29;20030;-93
2022/03/14 10:22:42;;;;;;;10.93;7.13;;;;;;;8.30;100.00;101422.34;5980347;29;20111;-91
2022/03/14 10:25:44;;;;;;;8.48;5.72;;;;;;;8.18;100.00;101425.56;5967086;29;20127;-88
2022/03/14 10:28:49;;;;;;;10.68;5.88;;;;;;;7.99;100.00;101431.72;5962595;29;20054;-88
2022/03/14 10:32:29;;;;;;;9.23;6.35;;;;;;;7.94;100.00;101433.69;5960872;29;20050;-89
2022/03/14 10:35:34;;;;;;;10.45;6.82;;;;;;;7.92;100.00;101432.13;5967295;29;20064;-90
2022/03/14 10:38:43;;;;;;;10.40;6.13;;;;;;;7.87;100.00;101444.44;5971371;29;20412;-90
2022/03/14 10:42:04;;;;;;;9.63;5.97;;;;;;;7.81;100.00;101449.91;5973097;29;20106;-90
2022/03/14 10:45:25;;;;;;;8.82;5.72;;;;;;;7.77;100.00;101450.06;5963319;29;20062;-90
2022/03/14 10:48:43;;;;;;;8.50;5.50;;;;;;;7.76;100.00;101458.72;5959562;29;20049;-90
2022/03/14 10:52:11;;;;;;;7.03;4.97;;;;;;;7.84;100.00;101458.31;5961802;29;20107;-91
2022/03/14 10:55:14;;;;;;;7.93;4.82;;;;;;;7.90;100.00;101458.00;5960361;29;20172;-90
2022/03/14 10:58:28;;;;;;;6.53;4.67;;;;;;;7.91;100.00;101461.41;5963258;29;20461;-90
2022/03/14 11:01:31;;;;;;;6.68;4.53;;;;;;;7.99;100.00;101457.50;5962287;29;20322;-90
2022/03/14 11:05:02;;;;;;;7.35;4.60;;;;;;;7.97;100.00;101454.19;5968847;29;20049;-90
2022/03/14 11:08:24;;;;;;;5.78;3.40;;;;;;;8.05;100.00;101461.50;5968760;29;20133;-90
2022/03/14 11:11:26;;;;;;;6.22;3.75;;;;;;;8.24;100.00;101463.09;5963607;29;20133;-91
2022/03/14 11:14:28;;;;;;;5.20;3.78;;;;;;;8.48;100.00;101469.53;5974991;29;20576;-91
2022/03/14 11:17:37;;;;;;;6.43;3.72;;;;;;;8.60;100.00;101468.84;5971577;29;20535;-92
2022/03/14 11:21:00;;;;;;;4.93;3.67;;;;;;;8.59;100.00;101467.16;5978982;29;20051;-91
2022/03/14 11:24:11;;;;;;;3.40;2.80;;;;;;;8.47;100.00;101467.88;5985908;29;20047;-91
2022/03/14 11:27:27;;;;;;;5.38;3.47;;;;;;;8.54;100.00;101478.66;5988429;29;20175;-92
2022/03/14 11:31:01;;;;;;;4.78;3.00;;;;;;;8.58;100.00;101467.28;5987784;29;20069;-92
2022/03/14 11:34:06;;;;;;;4.90;3.03;;;;;;;8.54;100.00;101476.91;5974703;29;20066;-93
2022/03/14 11:50:06;;;;;;;6.32;3.55;;;;;;;8.96;100.00;101472.03;6313035;27;2400174;-92
2022/03/14 11:53:27;;;;;;;5.95;4.10;;;;;;;9.08;100.00;101475.66;6400778;22;20053;-94
2022/03/14 11:56:54;;;;;;;6.70;4.47;;;;;;;9.05;100.00;101479.25;6468023;22;20567;-94
2022/03/14 12:00:19;;;;;;;5.97;3.95;;;;;;;8.97;100.00;101473.72;6310286;28;20070;-93
2022/03/14 12:03:40;;;;;;;5.38;3.72;;;;;;;9.02;100.00;101484.59;6282225;28;20116;-92
2022/03/14 12:06:49;;;;;;;4.97;3.58;;;;;;;9.04;100.00;101491.34;6283022;28;20033;-93
2022/03/14 12:10:29;;;;;;;4.65;3.75;;;;;;;9.07;100.00;101485.19;6307597;28;20055;-93
2022/03/14 12:13:52;;;;;;;7.18;4.03;;;;;;;8.94;100.00;101492.75;6294798;28;20132;-93
2022/03/14 12:17:30;;;;;;;5.43;4.20;;;;;;;8.77;100.00;101491.16;6294234;28;20093;-93
2022/03/14 12:20:48;;;;;;;5.70;3.65;;;;;;;8.67;100.00;101490.00;6293051;28;20065;-93
2022/03/14 12:24:21;;;;;;;5.43;4.05;;;;;;;8.63;100.00;101509.16;6369054;22;20114;-93
2022/03/14 12:27:46;;;;;;;6.60;4.00;;;;;;;8.49;100.00;101501.31;6835638;22;20046;-94
2022/03/14 12:31:16;;;;;;;5.82;3.92;;;;;;;8.38;100.00;101502.69;6265227;28;20087;-93
2022/03/14 12:34:29;;;;;;;7.00;3.97;;;;;;;8.29;100.00;101505.78;6265815;28;20041;-93
2022/03/14 12:37:35;;;;;;;5.30;3.75;;;;;;;8.28;100.00;101513.59;6279640;28;20046;-94
2022/03/14 12:41:00;;;;;;;5.75;4.22;;;;;;;8.22;100.00;101516.50;6267780;28;20073;-94
2022/03/14 12:44:27;;;;;;;8.63;4.80;;;;;;;8.18;100.00;101518.41;6256332;28;20204;-94
2022/03/14 12:47:30;;;;;;;7.88;5.13;;;;;;;8.16;100.00;101520.25;6269397;28;20122;-94
2022/03/14 12:50:58;;;;;;;5.95;4.47;;;;;;;8.16;100.00;101521.06;6258654;28;20796;-94
2022/03/14 12:54:09;;;;;;;7.03;4.63;;;;;;;8.26;100.00;101521.41;6252324;28;20268;-93
2022/03/14 12:57:23;;;;;;;9.05;5.40;;;;;;;8.44;100.00;101523.97;6256408;28;20464;-93
2022/03/14 13:01:16;;;;;;;8.05;5.90;;;;;;;8.58;100.00;101521.47;6471792;22;20098;31
2022/03/14 13:04:34;;;;;;;8.88;5.60;;;;;;;8.63;100.00;101524.63;6224216;28;20162;-93
2022/03/14 13:08:30;;;;;;;10.20;6.60;;;;;;;8.61;100.00;101522.13;6192044;28;20053;-93
2022/03/14 13:11:47;;;;;;;8.23;5.88;;;;;;;8.50;100.00;101532.22;6164366;28;20043;-93
2022/03/14 13:15:20;;;;;;;8.63;6.13;;;;;;;8.53;100.00;101533.78;6203665;28;20188;-93
2022/03/14 13:18:36;;;;;;;9.00;6.53;;;;;;;8.59;100.00;101536.03;6182313;28;20050;-93
2022/03/14 13:21:50;;;;;;;13.70;7.65;;;;;;;8.64;100.00;101541.75;6185084;28;20119;-93
2022/03/14 13:24:54;;;;;;;10.55;7.30;;;;;;;8.69;100.00;101544.94;6197643;28;20034;-93
2022/03/14 13:28:11;;;;;;;11.38;7.03;;;;;;;8.65;100.00;101548.59;6202586;28;20140;-93
2022/03/14 13:31:33;;;;;;;11.18;7.43;;;;;;;8.55;100.00;101547.44;6207787;28;20038;-93
2022/03/14 13:35:18;;;;;;;13.37;7.87;;;;;;;8.41;100.00;101551.59;6192411;28;20048;-93
2022/03/14 13:38:35;;;;;;;12.43;8.05;;;;;;;8.30;100.00;101550.47;6198507;28;20049;-93
2022/03/14 13:41:43;;;;;;;11.93;7.75;;;;;;;8.28;100.00;101554.88;6192142;28;20051;-93
2022/03/14 13:44:51;;;;;;;13.02;8.85;;;;;;;8.20;100.00;101557.88;6202037;28;20045;-93
2022/03/14 13:48:01;;;;;;;11.75;8.50;;;;;;;8.15;100.00;101557.28;6188146;28;20849;-94
2022/03/14 13:51:12;;;;;;;14.68;8.85;;;;;;;8.13;100.00;101564.25;6203836;28;20062;-94
2022/03/14 13:54:18;;;;;;;15.77;8.68;;;;;;;8.11;100.00;101563.50;6195346;28;20205;-94
2022/03/14 13:57:23;;;;;;;14.45;9.18;;;;;;;8.10;100.00;101557.50;6198829;28;20042;-93
2022/03/14 14:00:27;;;;;;;14.75;9.65;;;;;;;8.16;100.00;101566.66;6199675;28;20043;-93
2022/03/14 14:03:30;;;;;;;17.08;10.57;;;;;;;8.17;100.00;101560.56;6202707;28;20045;-94
2022/03/14 14:06:43;;;;;;;18.20;9.90;;;;;;;8.20;100.00;101573.34;6200198;28;20052;-94
2022/03/14 14:09:47;;;;;;;16.00;10.32;;;;;;;8.22;100.00;101575.81;6187357;28;20058;-94
2022/03/14 14:13:03;;;;;;;14.45;9.10;;;;;;;8.21;100.00;101575.00;6206971;28;20050;-93
2022/03/14 14:16:24;;;;;;;14.73;9.38;;;;;;;8.14;100.00;101586.53;6177397;28;20046;-93
2022/03/14 14:19:26;;;;;;;15.18;9.02;;;;;;;8.17;100.00;101586.38;6203381;28;20088;-93
2022/03/14 14:22:34;;;;;;;15.38;9.65;;;;;;;8.14;100.00;101583.97;6198623;28;20061;-93
2022/03/14 14:25:36;;;;;;;13.98;9.20;;;;;;;8.09;100.00;101598.84;6167842;28;20141;-93
2022/03/14 14:28:38;;;;;;;15.38;9.30;;;;;;;8.06;100.00;101596.41;6199822;28;20518;-92
2022/03/14 14:31:45;;;;;;;15.43;9.40;;;;;;;8.12;100.00;101591.78;6196410;28;20068;-92
2022/03/14 14:34:47;;;;;;;13.82;9.23;;;;;;;8.22;100.00;101593.88;6196072;28;20038;-92
2022/03/14 14:37:49;;;;;;;17.92;8.90;;;;;;;8.31;100.00;101590.81;6198031;28;20053;-91
2022/03/14 14:40:53;;;;;;;15.48;9.10;;;;;;;8.41;100.00;101595.44;6192730;28;20041;-91
2022/03/14 14:43:56;;;;;;;13.88;8.45;;;;;;;8.49;100.00;101592.44;6195858;28;20046;-90
2022/03/14 14:47:00;;;;;;;16.67;8.80;;;;;;;8.49;100.00;101594.22;6200968;28;20534;-90
2022/03/14 14:50:03;;;;;;;16.45;8.35;;;;;;;8.48;100.00;101589.97;6179418;28;20054;-90
2022/03/14 14:53:16;;;;;;;12.50;8.20;;;;;;;8.50;100.00;101590.72;6169724;28;20042;-89
2022/03/14 14:56:17;;;;;;;17.05;8.23;;;;;;;8.61;100.00;101599.53;6198299;28;20053;-89
2022/03/14 14:59:20;;;;;;;14.80;8.20;;;;;;;8.74;100.00;101599.72;6201613;28;20078;-89
2022/03/14 15:02:23;;;;;;;12.18;7.10;;;;;;;8.80;100.00;101604.56;6193145;28;20049;-89
2022/03/14 15:05:25;;;;;;;19.65;7.97;;;;;;;8.98;100.00;101607.06;6174862;28;20062;-89
2022/03/14 15:08:27;;;;;;;16.77;7.70;;;;;;;9.03;100.00;101602.47;6191112;28;20049;-89
2022/03/14 15:11:29;;;;;;;13.20;6.85;;;;;;;9.07;100.00;101606.56;6198188;28;20048;-89
2022/03/14 15:14:32;;;;;;;12.43;7.00;;;;;;;9.00;100.00;101611.22;6197433;28;20065;-88
2022/03/14 15:17:36;;;;;;;15.65;8.25;;;;;;;8.95;100.00;101609.81;6193989;28;20046;-88
2022/03/14 15:20:37;;;;;;;15.05;7.30;;;;;;;8.95;100.00;101613.22;6198309;28;20038;-88
2022/03/14 15:23:39;;;;;;;14.05;7.13;;;;;;;8.98;100.00;101610.47;6177367;28;20049;-89
2022/03/14 15:26:41;;;;;;;13.02;7.72;;;;;;;8.97;100.00;101613.16;6195545;28;20321;-89
2022/03/14 15:29:45;;;;;;;12.40;7.00;;;;;;;8.95;100.00;101615.81;6193624;28;20054;-89
2022/03/14 15:32:48;;;;;;;13.00;6.95;;;;;;;8.89;100.00;101613.53;6183648;28;20513;-89
2022/03/14 15:35:51;;;;;;;15.25;7.35;;;;;;;8.83;100.00;101614.72;6172329;28;20046;-89
2022/03/14 15:38:52;;;;;;;15.50;7.28;;;;;;;8.75;100.00;101626.38;6188008;28;20034;-89
2022/03/14 15:41:55;;;;;;;12.98;7.10;;;;;;;8.72;100.00;101624.81;6186655;28;20038;-89
2022/03/14 15:44:56;;;;;;;14.10;7.32;;;;;;;8.68;100.00;101632.78;6187035;28;20057;-89
2022/03/14 15:47:58;;;;;;;11.60;7.47;;;;;;;8.65;100.00;101631.19;6199362;28;20053;-89
2022/03/14 15:51:00;;;;;;;14.80;7.38;;;;;;;8.59;100.00;101632.34;6187817;28;20050;-89
2022/03/14 15:54:02;;;;;;;13.07;7.45;;;;;;;8.61;100.00;101637.44;6197372;28;20074;-89
2022/03/14 15:57:05;;;;;;;12.82;7.43;;;;;;;8.66;100.00;101630.28;6178265;28;20062;-89
2022/03/14 16:00:08;;;;;;;16.25;7.90;;;;;;;8.66;100.00;101637.19;6172416;28;20046;-89
2022/03/14 16:03:20;;;;;;;13.85;7.93;;;;;;;8.69;100.00;101637.84;6176916;28;20414;-90